createdAt,value
2023-03-26T00:01:54.392Z,99936.94
2023-03-26T00:04:57.188Z,99940.87
2023-03-26T00:07:59.968Z,99932.81
2023-03-26T00:11:03.701Z,99926.25
2023-03-26T00:14:06.552Z,99929.53
2023-03-26T00:17:09.298Z,99922.97
2023-03-26T00:20:13.272Z,99926.44
2023-03-26T00:23:16.232Z,99924.13
2023-03-26T00:26:19.053Z,99918.06
2023-03-26T00:29:28.229Z,99919.03
2023-03-26T00:32:31.597Z,99916.41
2023-03-26T00:35:38.833Z,99915.28
2023-03-26T00:38:42.526Z,99913.16
2023-03-26T00:41:45.522Z,99912.66
2023-03-26T00:44:48.517Z,99902.63
2023-03-26T00:47:51.954Z,99903.09
2023-03-26T00:50:54.751Z,99898.34
2023-03-26T00:53:58.144Z,99905.25
2023-03-26T00:57:01.025Z,99902.94
2023-03-26T01:00:17.336Z,99898.03
2023-03-26T01:03:27.762Z,99890.00
2023-03-26T01:06:38.009Z,99892.13
2023-03-26T01:09:45.304Z,99899.16
2023-03-26T01:12:47.785Z,99899.50
2023-03-26T01:15:51.495Z,99901.63
2023-03-26T01:18:54.722Z,99897.19
2023-03-26T01:21:59.136Z,99896.88
2023-03-26T01:25:01.841Z,99892.44
2023-03-26T01:28:08.924Z,99892.09
2023-03-26T01:31:29.852Z,99892.28
2023-03-26T01:34:38.660Z,99894.25
2023-03-26T01:41:47.320Z,99886.63
2023-03-26T01:45:17.605Z,99884.66
2023-03-26T01:48:20.868Z,99885.81
2023-03-26T01:51:35.828Z,99874.50
2023-03-26T01:54:38.727Z,99881.22
2023-03-26T01:57:55.195Z,99875.12
2023-03-26T02:01:12.958Z,99878.44
2023-03-26T02:04:27.822Z,99873.47
2023-03-26T02:07:51.246Z,99869.03
2023-03-26T02:10:58.161Z,99860.81
2023-03-26T02:14:01.009Z,99866.41
2023-03-26T02:17:03.760Z,99858.34
2023-03-26T02:20:10.246Z,99859.94
2023-03-26T02:26:16.856Z,99849.09
2023-03-26T02:35:23.644Z,99843.47
2023-03-26T02:41:28.481Z,99837.44
2023-03-26T02:44:31.362Z,99833.44
2023-03-26T02:47:35.366Z,99835.47
2023-03-26T02:50:39.506Z,99841.31
2023-03-26T02:53:42.317Z,99839.34
2023-03-26T02:56:45.104Z,99844.78
2023-03-26T02:59:50.559Z,99849.94
2023-03-26T03:02:54.382Z,99852.44
2023-03-26T03:05:57.607Z,99845.34
2023-03-26T03:09:02.882Z,99839.44
2023-03-26T03:12:06.038Z,99843.13
2023-03-26T03:15:09.663Z,99852.75
2023-03-26T03:18:12.440Z,99850.44
2023-03-26T03:21:15.216Z,99850.13
2023-03-26T03:24:18.836Z,99853.41
2023-03-26T03:27:22.462Z,99852.28
2023-03-26T03:30:26.173Z,99851.69
2023-03-26T03:33:29.014Z,99854.56
2023-03-26T03:36:33.642Z,99849.00
2023-03-26T03:39:36.452Z,99848.09
2023-03-26T03:42:39.579Z,99845.00
2023-03-26T03:45:42.363Z,99847.31
2023-03-26T03:48:49.989Z,99850.19
2023-03-26T03:51:52.855Z,99843.00
2023-03-26T03:57:59.382Z,99856.75
2023-03-26T04:01:03.225Z,99856.22
2023-03-26T04:04:06.215Z,99857.84
2023-03-26T04:07:09.051Z,99856.69
2023-03-26T04:10:14.388Z,99855.03
2023-03-26T04:13:18.126Z,99849.56
2023-03-26T04:16:21.411Z,99860.59
2023-03-26T04:19:24.971Z,99858.66
2023-03-26T04:22:34.834Z,99852.69
2023-03-26T04:28:43.384Z,99849.91
2023-03-26T04:31:47.353Z,99843.19
2023-03-26T04:34:50.237Z,99840.56
2023-03-26T04:37:53.143Z,99839.91
2023-03-26T04:41:01.203Z,99847.13
2023-03-26T04:44:05.569Z,99841.87
2023-03-26T04:50:11.450Z,99852.34
2023-03-26T04:53:19.216Z,99855.94
2023-03-26T04:56:36.563Z,99848.41
2023-03-26T04:59:41.524Z,99850.47
2023-03-26T05:02:44.752Z,99841.16
2023-03-26T05:05:49.869Z,99848.41
2023-03-26T05:08:53.018Z,99837.69
2023-03-26T05:14:57.329Z,99845.22
2023-03-26T05:18:00.266Z,99856.37
2023-03-26T05:21:03.211Z,99865.88
2023-03-26T05:24:06.853Z,99867.81
2023-03-26T05:27:14.741Z,99869.16
2023-03-26T05:30:20.668Z,99864.94
2023-03-26T05:33:23.767Z,99859.06
2023-03-26T05:36:28.628Z,99876.59
2023-03-26T05:39:31.606Z,99874.16
2023-03-26T05:42:34.443Z,99870.06
2023-03-26T05:45:37.351Z,99876.97
2023-03-26T05:48:40.489Z,99877.03
2023-03-26T05:51:43.274Z,99884.56
2023-03-26T05:54:46.057Z,99877.69
2023-03-26T05:57:48.796Z,99878.50
2023-03-26T06:01:08.666Z,99869.66
2023-03-26T06:04:17.911Z,99868.62
2023-03-26T06:07:21.242Z,99870.91
2023-03-26T06:10:24.104Z,99874.69
2023-03-26T06:13:27.189Z,99867.62
2023-03-26T06:19:31.602Z,99854.75
2023-03-26T06:22:34.473Z,99857.94
2023-03-26T06:25:37.849Z,99855.87
2023-03-26T06:28:41.237Z,99856.75
2023-03-26T06:31:44.143Z,99853.28
2023-03-26T06:34:46.994Z,99868.38
2023-03-26T06:37:49.788Z,99868.66
2023-03-26T06:40:52.738Z,99872.56
2023-03-26T06:43:56.007Z,99865.06
2023-03-26T06:46:59.092Z,99861.91
2023-03-26T06:50:01.832Z,99874.84
2023-03-26T06:53:04.832Z,99874.69
2023-03-26T06:56:09.144Z,99870.44
2023-03-26T06:59:11.979Z,99873.19
2023-03-26T07:02:14.718Z,99870.16
2023-03-26T07:05:17.850Z,99875.16
2023-03-26T07:08:21.023Z,99875.06
2023-03-26T07:14:30.698Z,99870.16
2023-03-26T07:17:33.502Z,99875.25
2023-03-26T07:20:36.568Z,99864.06
2023-03-26T07:23:39.668Z,99860.53
2023-03-26T07:26:51.131Z,99867.88
2023-03-26T07:30:15.237Z,99866.44
2023-03-26T07:33:27.393Z,99852.50
2023-03-26T07:36:38.744Z,99847.56
2023-03-26T07:40:02.315Z,99847.56
2023-03-26T07:43:44.510Z,99846.88
2023-03-26T07:46:49.045Z,99850.31
2023-03-26T07:49:54.489Z,99831.56
2023-03-26T07:52:57.673Z,99833.53
2023-03-26T07:56:16.335Z,99836.50
2023-03-26T07:59:40.681Z,99829.97
2023-03-26T08:03:05.333Z,99841.19
2023-03-26T08:06:23.928Z,99829.69
2023-03-26T08:09:51.014Z,99845.75
2023-03-26T08:13:12.583Z,99828.13
2023-03-26T08:16:38.597Z,99833.91
2023-03-26T08:19:41.360Z,99828.00
2023-03-26T08:22:50.966Z,99822.31
2023-03-26T08:26:02.767Z,99825.16
2023-03-26T08:29:36.224Z,99818.16
2023-03-26T08:32:39.584Z,99820.81
2023-03-26T08:35:42.949Z,99813.31
2023-03-26T08:38:46.904Z,99816.31
2023-03-26T08:41:58.840Z,99807.59
2023-03-26T08:45:07.002Z,99803.53
2023-03-26T08:48:30.140Z,99799.09
2023-03-26T08:51:40.125Z,99792.94
2023-03-26T08:54:51.937Z,99802.22
2023-03-26T08:58:24.405Z,99803.06
2023-03-26T09:01:59.130Z,99805.19
2023-03-26T09:05:22.953Z,99805.31
2023-03-26T09:08:53.796Z,99803.50
2023-03-26T09:12:12.528Z,99802.69
2023-03-26T09:15:35.986Z,99792.25
2023-03-26T09:19:01.121Z,99781.88
2023-03-26T09:22:41.877Z,99778.56
2023-03-26T09:26:05.067Z,99784.44
2023-03-26T09:29:41.500Z,99775.59
2023-03-26T09:33:07.571Z,99772.28
2023-03-26T09:36:29.043Z,99760.84
2023-03-26T09:39:38.033Z,99751.63
2023-03-26T09:42:46.353Z,99756.19
2023-03-26T09:46:29.446Z,99739.19
2023-03-26T09:49:47.311Z,99738.69
2023-03-26T09:53:12.070Z,99718.13
2023-03-26T09:56:29.049Z,99718.16
2023-03-26T09:59:43.929Z,99706.78
2023-03-26T10:02:53.890Z,99701.28
2023-03-26T10:06:12.788Z,99696.47
2023-03-26T10:09:21.271Z,99695.78
2023-03-26T10:12:39.839Z,99693.78
2023-03-26T10:15:53.750Z,99690.81
2023-03-26T10:19:02.543Z,99689.91
2023-03-26T10:22:47.226Z,99674.63
2023-03-26T10:26:04.615Z,99675.88
2023-03-26T10:29:31.236Z,99663.28
2023-03-26T10:32:47.440Z,99650.31
2023-03-26T10:36:40.524Z,99650.94
2023-03-26T10:40:21.479Z,99638.06
2023-03-26T10:43:37.266Z,99631.66
2023-03-26T10:47:01.824Z,99624.88
2023-03-26T10:50:29.210Z,99618.94
2023-03-26T10:53:49.279Z,99616.12
2023-03-26T10:56:52.662Z,99601.00
2023-03-26T11:00:01.153Z,99617.72
2023-03-26T11:03:19.091Z,99593.56
2023-03-26T11:06:50.778Z,99597.06
2023-03-26T11:10:13.610Z,99585.00
2023-03-26T11:13:22.359Z,99568.84
2023-03-26T11:16:28.176Z,99566.25
2023-03-26T11:19:41.825Z,99555.12
2023-03-26T11:22:52.393Z,99546.78
2023-03-26T11:26:07.485Z,99548.19
2023-03-26T11:29:33.692Z,99534.66
2023-03-26T11:32:42.962Z,99536.16
2023-03-26T11:35:51.994Z,99510.19
2023-03-26T11:38:58.185Z,99518.31
2023-03-26T11:42:07.908Z,99512.84
2023-03-26T11:45:19.906Z,99507.56
2023-03-26T11:48:28.690Z,99488.47
2023-03-26T11:51:36.523Z,99476.91
2023-03-26T11:54:39.574Z,99462.69
2023-03-26T11:57:47.857Z,99464.31
2023-03-26T12:00:53.146Z,99467.59
2023-03-26T12:04:05.556Z,99453.78
2023-03-26T12:07:18.779Z,99448.81
2023-03-26T12:10:24.617Z,99432.31
2023-03-26T12:13:27.455Z,99435.59
2023-03-26T12:16:30.725Z,99431.06
2023-03-26T12:19:42.214Z,99432.59
2023-03-26T12:22:47.942Z,99420.25
2023-03-26T12:26:18.214Z,99418.84
2023-03-26T12:29:21.158Z,99418.56
2023-03-26T12:32:35.508Z,99414.25
2023-03-26T12:35:46.459Z,99397.94
2023-03-26T12:39:15.873Z,99393.69
2023-03-26T12:44:44.533Z,99384.19
2023-03-26T12:47:15.021Z,99398.94
2023-03-26T12:49:22.643Z,99378.56
2023-03-26T12:52:54.238Z,99378.44
2023-03-26T12:56:02.450Z,99370.06
2023-03-26T12:59:32.833Z,99368.41
2023-03-26T13:02:52.233Z,99364.62
2023-03-26T13:06:58.866Z,99351.06
2023-03-26T13:09:57.336Z,99345.84
2023-03-26T13:13:25.012Z,99353.94
2023-03-26T13:16:52.612Z,99329.78
2023-03-26T13:20:06.912Z,99337.94
2023-03-26T13:23:26.959Z,99317.78
2023-03-26T13:26:46.601Z,99325.63
2023-03-26T13:30:13.118Z,99323.84
2023-03-26T13:33:31.123Z,99313.44
2023-03-26T13:36:46.899Z,99309.44
2023-03-26T13:40:24.981Z,99299.13
2023-03-26T13:43:42.830Z,99305.91
2023-03-26T13:46:55.702Z,99303.88
2023-03-26T13:50:20.555Z,99299.16
2023-03-26T13:53:33.015Z,99292.34
2023-03-26T13:56:52.645Z,99285.59
2023-03-26T14:00:08.363Z,99283.03
2023-03-26T14:03:29.338Z,99273.78
2023-03-26T14:06:57.659Z,99277.75
2023-03-26T14:10:25.466Z,99265.09
2023-03-26T14:13:41.445Z,99258.69
2023-03-26T14:16:48.756Z,99244.16
2023-03-26T14:19:54.969Z,99251.50
2023-03-26T14:23:26.824Z,99227.34
2023-03-26T14:27:13.308Z,99226.56
2023-03-26T14:30:37.880Z,99213.91
2023-03-26T14:34:38.598Z,99219.66
2023-03-26T14:37:50.151Z,99217.38
2023-03-26T14:41:14.982Z,99194.50
2023-03-26T14:44:48.307Z,99196.22
2023-03-26T14:48:02.948Z,99191.78
2023-03-26T14:51:30.314Z,99189.06
2023-03-26T14:54:38.620Z,99207.91
2023-03-26T14:57:56.528Z,99190.69
2023-03-26T15:01:27.105Z,99181.91
2023-03-26T15:05:07.225Z,99178.00
2023-03-26T15:08:33.821Z,99167.56
2023-03-26T15:11:51.587Z,99153.38
2023-03-26T15:14:55.183Z,99155.94
2023-03-26T15:18:31.796Z,99137.78
2023-03-26T15:22:04.567Z,99148.31
2023-03-26T15:25:33.105Z,99130.09
2023-03-26T15:28:47.988Z,99108.50
2023-03-26T15:31:57.853Z,99106.06
2023-03-26T15:35:17.634Z,99090.72
2023-03-26T15:38:50.387Z,99092.69
2023-03-26T15:42:04.214Z,99084.91
2023-03-26T15:45:08.056Z,99073.69
2023-03-26T15:48:14.000Z,99057.81
2023-03-26T15:51:26.336Z,99074.09
2023-03-26T15:54:45.915Z,99056.28
2023-03-26T15:57:57.150Z,99051.31
2023-03-26T16:01:20.067Z,99042.53
2023-03-26T16:04:51.833Z,99040.87
2023-03-26T16:08:19.229Z,99056.75
2023-03-26T16:11:57.118Z,99061.50
2023-03-26T16:15:39.205Z,99068.12
2023-03-26T16:18:43.788Z,99063.75
2023-03-26T16:22:02.479Z,99062.06
2023-03-26T16:25:26.844Z,99063.25
2023-03-26T16:28:36.506Z,99057.84
2023-03-26T16:32:15.872Z,99057.25
2023-03-26T16:35:18.946Z,99044.78
2023-03-26T16:38:25.091Z,99055.66
2023-03-26T16:41:31.938Z,99047.84
2023-03-26T16:44:50.137Z,99043.22
2023-03-26T16:48:07.574Z,99045.22
2023-03-26T16:51:25.955Z,99052.84
2023-03-26T16:54:58.484Z,99041.56
2023-03-26T16:58:32.388Z,99045.38
2023-03-26T17:02:00.241Z,99045.47
2023-03-26T17:05:45.518Z,99035.81
2023-03-26T17:08:59.620Z,99048.50
2023-03-26T17:12:05.649Z,99044.38
2023-03-26T17:15:27.610Z,99053.72
2023-03-26T17:19:17.999Z,99050.25
2023-03-26T17:22:47.246Z,99055.69
2023-03-26T17:26:18.683Z,99047.72
2023-03-26T17:29:52.561Z,99045.97
2023-03-26T17:33:07.512Z,99033.72
2023-03-26T17:36:13.741Z,99035.34
2023-03-26T17:39:39.976Z,99038.13
2023-03-26T17:43:02.256Z,99039.25
2023-03-26T17:46:23.552Z,99037.06
2023-03-26T17:49:29.610Z,99038.78
2023-03-26T17:53:14.503Z,99039.13
2023-03-26T17:56:25.295Z,99034.53
2023-03-26T17:59:28.866Z,99028.88
2023-03-26T18:02:39.692Z,99028.53
2023-03-26T18:05:46.577Z,99032.56
2023-03-26T18:09:11.374Z,99027.47
2023-03-26T18:12:39.547Z,99025.59
2023-03-26T18:15:45.022Z,99023.03
2023-03-26T18:18:52.382Z,99026.81
2023-03-26T18:22:03.975Z,99023.38
2023-03-26T18:25:07.312Z,99017.47
2023-03-26T18:28:14.556Z,99010.13
2023-03-26T18:31:20.917Z,99006.28
2023-03-26T18:34:26.267Z,98998.56
2023-03-26T18:37:34.573Z,98996.59
2023-03-26T18:40:43.741Z,98999.03
2023-03-26T18:43:46.872Z,98997.63
2023-03-26T18:46:54.830Z,98990.84
2023-03-26T18:49:58.472Z,98989.22
2023-03-26T18:53:02.411Z,99001.69
2023-03-26T18:56:28.661Z,99036.94
2023-03-26T18:59:35.474Z,99050.75
2023-03-26T19:02:44.945Z,99039.44
2023-03-26T19:05:48.763Z,99058.25
2023-03-26T19:08:53.841Z,99080.13
2023-03-26T19:11:58.941Z,99044.44
2023-03-26T19:15:08.111Z,99031.66
2023-03-26T19:18:20.354Z,99029.28
2023-03-26T19:21:25.775Z,99026.09
2023-03-26T19:24:29.141Z,99019.78
2023-03-26T19:27:33.091Z,99016.91
2023-03-26T19:30:40.805Z,98997.59
2023-03-26T19:33:44.922Z,98997.84
2023-03-26T19:37:05.130Z,98993.78
2023-03-26T19:40:31.212Z,98993.81
2023-03-26T19:43:34.089Z,98990.19
2023-03-26T19:46:52.805Z,98987.56
2023-03-26T19:50:04.493Z,98982.31
2023-03-26T19:53:16.104Z,98974.44
2023-03-26T19:56:21.074Z,98967.16
2023-03-26T19:59:24.347Z,98973.22
2023-03-26T20:02:30.295Z,98964.72
2023-03-26T20:05:34.630Z,98962.28
2023-03-26T20:08:40.705Z,98962.69
2023-03-26T20:11:47.300Z,98958.84
2023-03-26T20:14:50.507Z,98959.88
2023-03-26T20:17:54.858Z,98952.59
2023-03-26T20:20:58.893Z,98962.72
2023-03-26T20:24:02.379Z,98960.69
2023-03-26T20:27:08.459Z,98964.53
2023-03-26T20:30:12.150Z,98967.97
2023-03-26T20:33:27.262Z,98961.28
2023-03-26T20:36:33.274Z,98963.69
2023-03-26T20:39:37.972Z,98954.59
2023-03-26T20:42:42.803Z,98951.34
2023-03-26T20:45:46.333Z,98941.00
2023-03-26T20:48:49.797Z,98934.13
2023-03-26T20:51:56.291Z,98936.16
2023-03-26T20:55:00.460Z,98935.94
2023-03-26T20:58:04.213Z,98926.00
2023-03-26T21:01:11.822Z,98929.19
2023-03-26T21:04:16.400Z,98935.06
2023-03-26T21:07:19.893Z,98925.97
2023-03-26T21:10:26.343Z,98925.56
2023-03-26T21:13:43.682Z,98913.81
2023-03-26T21:16:47.053Z,98909.75
2023-03-26T21:19:50.284Z,98907.31
2023-03-26T21:23:10.231Z,98898.81
2023-03-26T21:26:25.523Z,98903.66
2023-03-26T21:29:28.865Z,98893.53
2023-03-26T21:32:31.931Z,98887.69
2023-03-26T21:35:37.503Z,98891.34
2023-03-26T21:38:43.808Z,98900.44
2023-03-26T21:42:04.889Z,98883.81
2023-03-26T21:45:12.464Z,98894.34
2023-03-26T21:48:18.855Z,98896.19
2023-03-26T21:51:24.869Z,98886.50
2023-03-26T21:54:29.985Z,98885.88
2023-03-26T21:57:55.174Z,98883.03
2023-03-26T22:01:20.880Z,98876.53
2023-03-26T22:04:30.858Z,98869.19
2023-03-26T22:07:48.790Z,98866.56
2023-03-26T22:10:51.905Z,98880.06
2023-03-26T22:13:56.464Z,98875.59
2023-03-26T22:16:59.291Z,98879.00
2023-03-26T22:20:08.008Z,98877.59
2023-03-26T22:23:14.124Z,98869.12
2023-03-26T22:26:17.091Z,98847.88
2023-03-26T22:29:23.041Z,98859.63
2023-03-26T22:32:26.338Z,98840.19
2023-03-26T22:35:41.406Z,98841.41
2023-03-26T22:38:44.244Z,98836.94
2023-03-26T22:41:47.254Z,98832.91
2023-03-26T22:44:50.199Z,98821.19
2023-03-26T22:48:03.025Z,98822.00
2023-03-26T22:51:09.276Z,98807.84
2023-03-26T22:54:12.380Z,98803.78
2023-03-26T22:57:16.681Z,98797.09
2023-03-26T23:00:22.405Z,98792.44
2023-03-26T23:03:35.132Z,98792.00
2023-03-26T23:06:38.492Z,98778.41
2023-03-26T23:09:41.896Z,98779.44
2023-03-26T23:12:47.744Z,98769.13
2023-03-26T23:15:55.280Z,98769.31
2023-03-26T23:18:58.396Z,98765.87
2023-03-26T23:22:01.385Z,98767.88
2023-03-26T23:25:04.643Z,98756.56
2023-03-26T23:28:07.460Z,98768.09
2023-03-26T23:31:12.659Z,98768.88
2023-03-26T23:34:17.230Z,98762.81
2023-03-26T23:37:23.557Z,98762.00
2023-03-26T23:40:28.273Z,98758.16
2023-03-26T23:43:34.128Z,98758.53
2023-03-26T23:46:36.957Z,98758.94
2023-03-26T23:49:39.704Z,98755.88
2023-03-26T23:52:45.811Z,98754.53
2023-03-26T23:55:50.042Z,98752.69
2023-03-26T23:58:53.619Z,98752.91
